createdAt,value
2024-02-13T00:00:11.244Z,4.35
2024-02-13T00:02:38.923Z,4.40
2024-02-13T00:05:09.947Z,4.45
2024-02-13T00:07:40.791Z,4.49
2024-02-13T00:10:12.160Z,4.56
2024-02-13T00:12:42.035Z,4.59
2024-02-13T00:15:15.606Z,4.60
2024-02-13T00:17:42.900Z,4.60
2024-02-13T00:20:10.416Z,4.57
2024-02-13T00:22:37.387Z,4.54
2024-02-13T00:25:07.040Z,4.51
2024-02-13T00:27:34.870Z,4.47
2024-02-13T00:30:05.036Z,4.44
2024-02-13T00:32:33.490Z,4.41
2024-02-13T00:35:04.023Z,4.38
2024-02-13T00:37:30.666Z,4.35
2024-02-13T00:39:57.746Z,4.34
2024-02-13T00:42:24.508Z,4.32
2024-02-13T00:44:51.258Z,4.30
2024-02-13T00:47:19.735Z,4.28
2024-02-13T00:49:47.182Z,4.28
2024-02-13T00:52:13.798Z,4.28
2024-02-13T00:54:40.509Z,4.25
2024-02-13T00:57:08.854Z,4.24
2024-02-13T00:59:36.694Z,4.22
2024-02-13T01:02:03.434Z,4.22
2024-02-13T01:04:31.162Z,4.20
2024-02-13T01:06:58.114Z,4.17
2024-02-13T01:09:25.059Z,4.16
2024-02-13T01:11:51.911Z,4.15
2024-02-13T01:14:19.114Z,4.16
2024-02-13T01:16:46.079Z,4.15
2024-02-13T01:19:13.464Z,4.15
2024-02-13T01:21:40.248Z,4.12
2024-02-13T01:24:06.891Z,4.10
2024-02-13T01:26:33.773Z,4.07
2024-02-13T01:29:00.504Z,4.06
2024-02-13T01:31:27.437Z,4.05
2024-02-13T01:33:54.153Z,4.06
2024-02-13T01:36:20.907Z,4.06
2024-02-13T01:38:47.688Z,4.06
2024-02-13T01:41:14.453Z,4.06
2024-02-13T01:43:41.845Z,4.07
2024-02-13T01:46:10.140Z,4.05
2024-02-13T01:48:40.089Z,4.04
2024-02-13T01:51:08.462Z,4.05
2024-02-13T01:53:36.503Z,4.04
2024-02-13T01:56:04.238Z,4.04
2024-02-13T01:58:32.292Z,4.03
2024-02-13T02:01:02.765Z,4.03
2024-02-13T02:03:33.257Z,4.03
2024-02-13T02:06:01.695Z,4.02
2024-02-13T02:08:29.095Z,4.01
2024-02-13T02:10:59.882Z,4.01
2024-02-13T02:13:28.759Z,4.02
2024-02-13T02:15:57.332Z,4.02
2024-02-13T02:18:25.751Z,4.01
2024-02-13T02:20:52.870Z,4.01
2024-02-13T02:23:20.353Z,3.99
2024-02-13T02:25:48.411Z,3.97
2024-02-13T02:28:18.344Z,3.97
2024-02-13T02:30:46.318Z,3.96
2024-02-13T02:33:14.073Z,3.96
2024-02-13T02:35:43.125Z,3.95
2024-02-13T02:38:19.153Z,3.95
2024-02-13T02:40:45.768Z,3.95
2024-02-13T02:43:14.136Z,3.94
2024-02-13T02:45:40.926Z,3.93
2024-02-13T02:48:08.218Z,3.92
2024-02-13T02:50:37.860Z,3.94
2024-02-13T02:53:04.685Z,3.95
2024-02-13T02:55:31.533Z,3.95
2024-02-13T02:57:58.334Z,3.96
2024-02-13T03:00:24.911Z,3.95
2024-02-13T03:02:52.269Z,3.97
2024-02-13T03:05:19.380Z,3.96
2024-02-13T03:07:47.404Z,3.96
2024-02-13T03:10:14.583Z,3.96
2024-02-13T03:12:41.472Z,3.95
2024-02-13T03:15:08.491Z,3.96
2024-02-13T03:17:38.553Z,3.96
2024-02-13T03:20:08.176Z,3.96
2024-02-13T03:22:37.930Z,3.96
2024-02-13T03:25:07.749Z,3.94
2024-02-13T03:27:34.435Z,3.93
2024-02-13T03:30:01.240Z,3.93
2024-02-13T03:32:28.049Z,3.92
2024-02-13T03:34:55.395Z,3.92
2024-02-13T03:37:22.539Z,3.94
2024-02-13T03:39:49.270Z,3.93
2024-02-13T03:42:17.256Z,3.93
2024-02-13T03:44:44.604Z,3.94
2024-02-13T03:47:11.509Z,3.94
2024-02-13T03:49:38.573Z,3.94
2024-02-13T03:52:05.310Z,3.95
2024-02-13T03:54:32.041Z,3.94
2024-02-13T03:57:01.552Z,3.94
2024-02-13T03:59:30.536Z,3.94
2024-02-13T04:01:57.483Z,3.94
2024-02-13T04:04:24.199Z,3.95
2024-02-13T04:06:50.964Z,3.94
2024-02-13T04:09:17.659Z,3.92
2024-02-13T04:11:48.527Z,3.92
2024-02-13T04:14:15.300Z,3.90
2024-02-13T04:16:43.770Z,3.91
2024-02-13T04:19:11.007Z,3.88
2024-02-13T04:21:39.202Z,3.88
2024-02-13T04:24:08.367Z,3.87
2024-02-13T04:26:45.451Z,3.85
2024-02-13T04:29:12.104Z,3.84
2024-02-13T04:31:40.015Z,3.83
2024-02-13T04:34:07.630Z,3.82
2024-02-13T04:36:38.796Z,3.82
2024-02-13T04:39:08.187Z,3.80
2024-02-13T04:41:35.084Z,3.78
2024-02-13T04:44:01.787Z,3.77
2024-02-13T04:46:28.409Z,3.76
2024-02-13T04:48:55.390Z,3.75
2024-02-13T04:51:23.540Z,3.74
2024-02-13T04:53:50.211Z,3.71
2024-02-13T04:56:17.209Z,3.70
2024-02-13T04:58:45.163Z,3.69
2024-02-13T05:01:14.898Z,3.68
2024-02-13T05:03:50.934Z,3.66
2024-02-13T05:06:36.247Z,3.63
2024-02-13T05:09:02.925Z,3.62
2024-02-13T05:11:30.527Z,3.60
2024-02-13T05:14:00.906Z,3.59
2024-02-13T05:16:32.666Z,3.59
2024-02-13T05:19:00.018Z,3.57
2024-02-13T05:21:28.203Z,3.56
2024-02-13T05:23:55.148Z,3.55
2024-02-13T05:26:22.034Z,3.56
2024-02-13T05:28:51.692Z,3.54
2024-02-13T05:31:20.255Z,3.54
2024-02-13T05:33:47.107Z,3.54
2024-02-13T05:36:13.962Z,3.53
2024-02-13T05:38:45.522Z,3.51
2024-02-13T05:41:13.008Z,3.50
2024-02-13T05:43:42.104Z,3.51
2024-02-13T05:46:09.381Z,3.50
2024-02-13T05:48:37.199Z,3.51
2024-02-13T05:51:05.867Z,3.52
2024-02-13T05:53:33.520Z,3.52
2024-02-13T05:56:01.324Z,3.52
2024-02-13T05:58:29.975Z,3.50
2024-02-13T06:00:58.794Z,3.50
2024-02-13T06:03:26.267Z,3.50
2024-02-13T06:05:56.598Z,3.50
2024-02-13T06:08:24.076Z,3.52
2024-02-13T06:10:51.077Z,3.51
2024-02-13T06:13:17.932Z,3.51
2024-02-13T06:15:45.413Z,3.52
2024-02-13T06:18:13.131Z,3.54
2024-02-13T06:20:40.377Z,3.54
2024-02-13T06:23:07.542Z,3.53
2024-02-13T06:25:34.285Z,3.52
2024-02-13T06:28:00.878Z,3.53
2024-02-13T06:30:28.095Z,3.55
2024-02-13T06:32:55.141Z,3.57
2024-02-13T06:35:22.051Z,3.57
2024-02-13T06:37:48.912Z,3.58
2024-02-13T06:40:16.190Z,3.58
2024-02-13T06:42:42.864Z,3.56
2024-02-13T06:45:11.574Z,3.58
2024-02-13T06:47:39.957Z,3.58
2024-02-13T06:50:13.467Z,3.58
2024-02-13T06:52:41.665Z,3.58
2024-02-13T06:55:09.360Z,3.59
2024-02-13T06:57:37.295Z,3.59
2024-02-13T07:00:10.766Z,3.59
2024-02-13T07:02:38.064Z,3.60
2024-02-13T07:05:10.038Z,3.61
2024-02-13T07:07:45.601Z,3.62
2024-02-13T07:10:15.460Z,3.63
2024-02-13T07:12:42.671Z,3.63
2024-02-13T07:15:09.940Z,3.65
2024-02-13T07:17:48.765Z,3.66
2024-02-13T07:20:24.070Z,3.67
2024-02-13T07:22:51.224Z,3.69
2024-02-13T07:25:18.099Z,3.72
2024-02-13T07:27:44.939Z,3.73
2024-02-13T07:30:13.701Z,3.75
2024-02-13T07:32:43.592Z,3.77
2024-02-13T07:35:10.829Z,3.78
2024-02-13T07:37:37.657Z,3.81
2024-02-13T07:40:04.672Z,3.84
2024-02-13T07:42:31.589Z,3.87
2024-02-13T07:44:59.641Z,3.89
2024-02-13T07:47:27.644Z,3.91
2024-02-13T07:49:55.366Z,3.96
2024-02-13T07:52:22.805Z,3.99
2024-02-13T07:54:49.718Z,4.02
2024-02-13T07:57:17.746Z,4.06
2024-02-13T07:59:45.426Z,4.11
2024-02-13T08:02:14.292Z,4.16
2024-02-13T08:04:41.840Z,4.23
2024-02-13T08:07:09.613Z,4.27
2024-02-13T08:09:36.875Z,4.33
2024-02-13T08:12:08.185Z,4.38
2024-02-13T08:14:36.251Z,4.43
2024-02-13T08:17:08.057Z,4.48
2024-02-13T08:19:41.539Z,4.54
2024-02-13T08:22:08.899Z,4.59
2024-02-13T08:24:36.899Z,4.63
2024-02-13T08:27:04.293Z,4.66
2024-02-13T08:29:31.956Z,4.70
2024-02-13T08:31:58.977Z,4.75
2024-02-13T08:34:26.279Z,4.77
2024-02-13T08:36:54.455Z,4.81
2024-02-13T08:39:21.850Z,4.84
2024-02-13T08:41:48.959Z,4.87
2024-02-13T08:44:17.978Z,4.89
2024-02-13T08:46:44.990Z,4.91
2024-02-13T08:49:12.976Z,4.96
2024-02-13T08:51:42.303Z,5.00
2024-02-13T08:54:12.884Z,5.05
2024-02-13T08:56:40.845Z,5.10
2024-02-13T08:59:09.946Z,5.17
2024-02-13T09:01:36.736Z,5.23
2024-02-13T09:04:03.681Z,5.29
2024-02-13T09:06:30.636Z,5.37
2024-02-13T09:08:57.729Z,5.43
2024-02-13T09:11:25.742Z,5.51
2024-02-13T09:13:52.697Z,5.61
2024-02-13T09:16:20.689Z,5.69
2024-02-13T09:18:48.444Z,5.76
2024-02-13T09:21:16.651Z,5.84
2024-02-13T09:23:44.888Z,5.91
2024-02-13T09:26:11.571Z,6.01
2024-02-13T09:28:38.370Z,6.06
2024-02-13T09:31:05.038Z,6.11
2024-02-13T09:33:31.825Z,6.18
2024-02-13T09:35:58.688Z,6.27
2024-02-13T09:38:25.321Z,6.35
2024-02-13T09:40:52.290Z,6.45
2024-02-13T09:43:19.636Z,6.54
2024-02-13T09:45:46.832Z,6.63
2024-02-13T09:48:25.422Z,6.68
2024-02-13T09:50:54.179Z,6.75
2024-02-13T09:53:29.805Z,6.79
2024-02-13T09:55:58.736Z,6.80
2024-02-13T09:58:27.223Z,6.79
2024-02-13T10:00:58.521Z,6.83
2024-02-13T10:03:28.617Z,6.91
2024-02-13T10:05:56.176Z,7.01
2024-02-13T10:08:29.148Z,7.08
2024-02-13T10:11:04.249Z,7.06
2024-02-13T10:13:45.275Z,7.09
2024-02-13T10:16:23.736Z,7.11
2024-02-13T10:19:04.574Z,7.11
2024-02-13T10:21:31.684Z,7.08
2024-02-13T10:24:10.563Z,7.06
2024-02-13T10:26:38.852Z,7.12
2024-02-13T10:29:05.904Z,7.20
2024-02-13T10:31:40.884Z,7.28
2024-02-13T10:34:10.863Z,7.35
2024-02-13T10:36:39.858Z,7.39
2024-02-13T10:39:10.254Z,7.45
2024-02-13T10:41:46.688Z,7.56
2024-02-13T10:44:23.248Z,7.67
2024-02-13T10:46:50.535Z,7.81
2024-02-13T10:49:43.923Z,7.89
2024-02-13T10:52:13.465Z,7.95
2024-02-13T10:54:47.300Z,7.98
2024-02-13T10:57:18.132Z,8.06
2024-02-13T10:59:48.600Z,8.14
2024-02-13T11:02:19.240Z,8.16
2024-02-13T11:04:48.082Z,8.18
2024-02-13T11:07:16.218Z,8.16
2024-02-13T11:09:43.935Z,8.15
2024-02-13T11:12:10.983Z,8.22
2024-02-13T11:14:37.852Z,8.26
2024-02-13T11:17:10.681Z,8.25
2024-02-13T11:19:45.682Z,8.25
2024-02-13T11:22:16.351Z,8.22
2024-02-13T11:24:50.811Z,8.24
2024-02-13T11:27:26.840Z,8.26
2024-02-13T11:30:01.541Z,8.29
2024-02-13T11:32:41.156Z,8.34
2024-02-13T11:35:12.317Z,8.34
2024-02-13T11:37:42.665Z,8.36
2024-02-13T11:40:14.241Z,8.34
2024-02-13T11:42:41.337Z,8.33
2024-02-13T11:45:08.282Z,8.27
2024-02-13T11:47:35.402Z,8.25
2024-02-13T11:50:04.057Z,8.21
2024-02-13T11:52:30.808Z,8.22
2024-02-13T11:54:57.805Z,8.25
2024-02-13T11:57:27.569Z,8.33
2024-02-13T11:59:58.641Z,8.41
2024-02-13T12:02:25.666Z,8.46
2024-02-13T12:04:53.333Z,8.48
2024-02-13T12:07:20.307Z,8.52
2024-02-13T12:09:51.582Z,8.57
2024-02-13T12:12:18.673Z,8.63
2024-02-13T12:14:45.966Z,8.70
2024-02-13T12:17:13.665Z,8.79
2024-02-13T12:19:44.223Z,8.84
2024-02-13T12:22:18.426Z,8.90
2024-02-13T12:24:46.899Z,8.95
2024-02-13T12:27:16.498Z,8.97
2024-02-13T12:29:44.431Z,8.99
2024-02-13T12:32:17.712Z,9.03
2024-02-13T12:34:49.126Z,9.08
2024-02-13T12:37:22.077Z,9.08
2024-02-13T12:39:49.158Z,9.11
2024-02-13T12:42:18.453Z,9.15
2024-02-13T12:44:45.413Z,9.20
2024-02-13T12:47:14.627Z,9.25
2024-02-13T12:49:44.624Z,9.29
2024-02-13T12:52:12.702Z,9.31
2024-02-13T12:54:44.682Z,9.34
2024-02-13T12:57:11.258Z,9.34
2024-02-13T12:59:39.823Z,9.32
2024-02-13T13:02:10.074Z,9.31
2024-02-13T13:04:37.237Z,9.29
2024-02-13T13:07:05.038Z,9.28
2024-02-13T13:09:32.549Z,9.29
2024-02-13T13:12:00.144Z,9.30
2024-02-13T13:14:29.055Z,9.33
2024-02-13T13:16:56.712Z,9.35
2024-02-13T13:19:28.672Z,9.37
2024-02-13T13:21:57.165Z,9.39
2024-02-13T13:24:24.373Z,9.43
2024-02-13T13:26:51.828Z,9.43
2024-02-13T13:29:20.078Z,9.45
2024-02-13T13:31:50.389Z,9.49
2024-02-13T13:34:21.812Z,9.51
2024-02-13T13:36:51.017Z,9.55
2024-02-13T13:39:18.587Z,9.62
2024-02-13T13:41:45.273Z,9.68
2024-02-13T13:44:12.345Z,9.70
2024-02-13T13:46:38.970Z,9.66
2024-02-13T13:49:05.893Z,9.68
2024-02-13T13:51:40.252Z,9.74
2024-02-13T13:54:07.531Z,9.84
2024-02-13T13:56:34.440Z,9.91
2024-02-13T13:59:01.146Z,9.93
2024-02-13T14:01:27.954Z,9.96
2024-02-13T14:03:56.909Z,10.01
2024-02-13T14:06:23.961Z,10.03
2024-02-13T14:08:50.781Z,9.98
2024-02-13T14:11:18.734Z,9.96
2024-02-13T14:13:46.031Z,9.94
2024-02-13T14:16:12.942Z,9.89
2024-02-13T14:18:40.606Z,9.89
2024-02-13T14:21:08.978Z,9.98
2024-02-13T14:23:35.995Z,10.01
2024-02-13T14:26:02.703Z,10.07
2024-02-13T14:28:29.438Z,10.10
2024-02-13T14:30:57.116Z,10.10
2024-02-13T14:33:23.946Z,10.06
2024-02-13T14:35:50.851Z,10.06
2024-02-13T14:38:17.599Z,10.05
2024-02-13T14:40:44.571Z,10.02
2024-02-13T14:43:12.374Z,10.04
2024-02-13T14:45:40.550Z,10.02
2024-02-13T14:48:14.844Z,10.02
2024-02-13T14:50:42.480Z,10.00
2024-02-13T14:53:10.107Z,9.96
2024-02-13T14:55:39.766Z,9.90
2024-02-13T14:58:15.080Z,9.84
2024-02-13T15:00:54.564Z,9.81
2024-02-13T15:03:24.647Z,9.78
2024-02-13T15:05:52.017Z,9.74
2024-02-13T15:08:18.881Z,9.71
2024-02-13T15:10:47.204Z,9.70
2024-02-13T15:13:16.794Z,9.69
2024-02-13T15:15:49.719Z,9.70
2024-02-13T15:18:16.785Z,9.63
2024-02-13T15:20:44.397Z,9.63
2024-02-13T15:23:13.742Z,9.63
2024-02-13T15:25:41.525Z,9.59
2024-02-13T15:28:08.282Z,9.58
2024-02-13T15:30:38.670Z,9.59
2024-02-13T15:33:06.466Z,9.55
2024-02-13T15:35:42.777Z,9.54
2024-02-13T15:38:28.399Z,9.54
2024-02-13T15:41:14.396Z,9.54
2024-02-13T15:43:59.476Z,9.51
2024-02-13T15:46:44.744Z,9.49
2024-02-13T15:49:13.105Z,9.45
2024-02-13T15:51:41.329Z,9.44
2024-02-13T15:54:10.144Z,9.42
2024-02-13T15:56:37.611Z,9.39
2024-02-13T15:59:05.236Z,9.37
2024-02-13T16:01:32.282Z,9.36
2024-02-13T16:03:59.429Z,9.33
2024-02-13T16:06:26.250Z,9.32
2024-02-13T16:08:53.050Z,9.31
2024-02-13T16:11:19.788Z,9.29
2024-02-13T16:13:48.370Z,9.26
2024-02-13T16:16:16.500Z,9.26
2024-02-13T16:18:47.080Z,9.22
2024-02-13T16:21:13.728Z,9.20
2024-02-13T16:23:41.138Z,9.18
2024-02-13T16:26:11.501Z,9.15
2024-02-13T16:28:38.710Z,9.13
2024-02-13T16:31:07.728Z,9.11
2024-02-13T16:33:35.211Z,9.09
2024-02-13T16:36:02.201Z,9.07
2024-02-13T16:38:29.422Z,9.03
2024-02-13T16:40:56.057Z,8.99
2024-02-13T16:43:23.244Z,8.97
2024-02-13T16:45:50.124Z,8.94
2024-02-13T16:48:18.128Z,8.92
2024-02-13T16:50:44.945Z,8.92
2024-02-13T16:53:11.632Z,8.86
2024-02-13T16:55:38.785Z,8.86
2024-02-13T16:58:06.385Z,8.84
2024-02-13T17:00:33.382Z,8.82
2024-02-13T17:03:00.803Z,8.78
2024-02-13T17:05:27.805Z,8.76
2024-02-13T17:07:57.068Z,8.74
2024-02-13T17:10:23.763Z,8.72
2024-02-13T17:12:50.498Z,8.69
2024-02-13T17:15:17.112Z,8.66
2024-02-13T17:17:45.907Z,8.64
2024-02-13T17:20:13.594Z,8.63
2024-02-13T17:22:42.201Z,8.61
2024-02-13T17:25:12.994Z,8.60
2024-02-13T17:27:42.612Z,8.59
2024-02-13T17:30:13.921Z,8.57
2024-02-13T17:32:45.046Z,8.56
2024-02-13T17:35:12.053Z,8.56
2024-02-13T17:37:38.736Z,8.53
2024-02-13T17:40:08.648Z,8.52
2024-02-13T17:42:35.703Z,8.52
2024-02-13T17:45:05.882Z,8.50
2024-02-13T17:47:32.742Z,8.49
2024-02-13T17:49:59.574Z,8.48
2024-02-13T17:52:26.915Z,8.48
2024-02-13T17:54:54.556Z,8.46
2024-02-13T17:57:21.765Z,8.46
2024-02-13T17:59:48.589Z,8.46
2024-02-13T18:02:15.248Z,8.47
2024-02-13T18:04:41.863Z,8.47
2024-02-13T18:07:11.637Z,8.44
2024-02-13T18:09:40.225Z,8.45
2024-02-13T18:12:07.320Z,8.45
2024-02-13T18:14:36.200Z,8.44
2024-02-13T18:17:03.491Z,8.43
2024-02-13T18:19:30.202Z,8.43
2024-02-13T18:21:58.823Z,8.40
2024-02-13T18:24:25.615Z,8.40
2024-02-13T18:26:53.339Z,8.39
2024-02-13T18:29:20.060Z,8.37
2024-02-13T18:31:48.489Z,8.39
2024-02-13T18:34:16.494Z,8.38
2024-02-13T18:36:47.725Z,8.37
2024-02-13T18:39:14.502Z,8.36
2024-02-13T18:41:41.611Z,8.35
2024-02-13T18:44:08.628Z,8.35
2024-02-13T18:46:36.228Z,8.35
2024-02-13T18:49:04.315Z,8.35
2024-02-13T18:51:31.887Z,8.36
2024-02-13T18:53:58.601Z,8.33
2024-02-13T18:56:28.224Z,8.31
2024-02-13T18:58:54.935Z,8.31
2024-02-13T19:01:22.921Z,8.30
2024-02-13T19:03:49.547Z,8.28
2024-02-13T19:06:16.438Z,8.27
2024-02-13T19:08:43.116Z,8.24
2024-02-13T19:11:09.873Z,8.23
2024-02-13T19:13:36.641Z,8.21
2024-02-13T19:16:03.349Z,8.19
2024-02-13T19:18:30.101Z,8.15
2024-02-13T19:20:56.922Z,8.14
2024-02-13T19:23:25.148Z,8.12
2024-02-13T19:25:52.320Z,8.12
2024-02-13T19:28:19.261Z,8.12
2024-02-13T19:30:48.038Z,8.10
2024-02-13T19:33:14.947Z,8.10
2024-02-13T19:35:42.301Z,8.09
2024-02-13T19:38:11.025Z,8.09
2024-02-13T19:40:37.854Z,8.08
2024-02-13T19:43:04.900Z,8.07
2024-02-13T19:45:31.601Z,8.07
2024-02-13T19:47:58.283Z,8.07
2024-02-13T19:50:25.586Z,8.09
2024-02-13T19:52:53.746Z,8.10
2024-02-13T19:55:20.515Z,8.09
2024-02-13T19:57:48.327Z,8.09
2024-02-13T20:00:15.567Z,8.08
2024-02-13T20:02:43.588Z,8.08
2024-02-13T20:05:10.561Z,8.09
2024-02-13T20:07:39.226Z,8.10
2024-02-13T20:10:07.327Z,8.10
2024-02-13T20:12:33.921Z,8.11
2024-02-13T20:15:00.990Z,8.12
2024-02-13T20:17:27.959Z,8.13
2024-02-13T20:19:54.612Z,8.11
2024-02-13T20:22:21.484Z,8.14
2024-02-13T20:24:48.627Z,8.16
2024-02-13T20:27:15.319Z,8.17
2024-02-13T20:29:43.844Z,8.19
2024-02-13T20:32:10.778Z,8.19
2024-02-13T20:34:38.591Z,8.21
2024-02-13T20:37:05.407Z,8.20
2024-02-13T20:39:32.224Z,8.21
2024-02-13T20:42:00.901Z,8.20
2024-02-13T20:44:28.894Z,8.19
2024-02-13T20:46:57.171Z,8.19
2024-02-13T20:49:25.563Z,8.20
2024-02-13T20:51:52.310Z,8.18
2024-02-13T20:54:20.241Z,8.19
2024-02-13T20:56:48.496Z,8.17
2024-02-13T20:59:15.973Z,8.18
2024-02-13T21:01:43.471Z,8.18
2024-02-13T21:04:13.074Z,8.18
2024-02-13T21:06:43.280Z,8.17
2024-02-13T21:09:11.493Z,8.15
2024-02-13T21:11:38.333Z,8.15
2024-02-13T21:14:05.531Z,8.17
2024-02-13T21:16:34.603Z,8.14
2024-02-13T21:19:02.149Z,8.15
2024-02-13T21:21:47.779Z,8.13
2024-02-13T21:24:14.711Z,8.12
2024-02-13T21:26:41.605Z,8.12
2024-02-13T21:29:09.091Z,8.12
2024-02-13T21:31:36.772Z,8.10
2024-02-13T21:34:07.437Z,8.09
2024-02-13T21:36:36.045Z,8.07
2024-02-13T21:39:09.070Z,8.06
2024-02-13T21:41:37.882Z,8.06
2024-02-13T21:44:05.265Z,8.06
2024-02-13T21:46:32.507Z,8.06
2024-02-13T21:49:00.023Z,8.07
2024-02-13T21:51:27.014Z,8.08
2024-02-13T21:53:53.734Z,8.08
2024-02-13T21:56:21.666Z,8.08
2024-02-13T21:58:50.272Z,8.10
2024-02-13T22:01:17.014Z,8.11
2024-02-13T22:03:44.246Z,8.13
2024-02-13T22:06:13.166Z,8.15
2024-02-13T22:08:39.869Z,8.15
2024-02-13T22:11:09.238Z,8.17
2024-02-13T22:13:35.986Z,8.19
2024-02-13T22:16:02.875Z,8.21
2024-02-13T22:18:29.969Z,8.24
2024-02-13T22:20:59.022Z,8.22
2024-02-13T22:23:25.924Z,8.25
2024-02-13T22:25:52.815Z,8.25
2024-02-13T22:28:19.493Z,8.27
2024-02-13T22:30:47.228Z,8.26
2024-02-13T22:33:14.075Z,8.30
2024-02-13T22:35:42.024Z,8.28
2024-02-13T22:38:08.781Z,8.32
2024-02-13T22:40:35.489Z,8.32
2024-02-13T22:43:03.342Z,8.33
2024-02-13T22:45:30.156Z,8.34
2024-02-13T22:48:02.091Z,8.35
2024-02-13T22:50:29.958Z,8.35
2024-02-13T22:52:59.513Z,8.37
2024-02-13T22:55:29.881Z,8.42
2024-02-13T22:57:58.476Z,8.44
2024-02-13T23:00:44.436Z,8.46
2024-02-13T23:03:14.411Z,8.51
2024-02-13T23:05:46.826Z,8.52
2024-02-13T23:08:16.615Z,8.52
2024-02-13T23:10:43.689Z,8.51
2024-02-13T23:13:11.917Z,8.50
2024-02-13T23:15:38.610Z,8.48
2024-02-13T23:18:05.930Z,8.47
2024-02-13T23:20:32.828Z,8.42
2024-02-13T23:23:00.164Z,8.39
2024-02-13T23:25:26.885Z,8.37
2024-02-13T23:27:53.589Z,8.34
2024-02-13T23:30:21.016Z,8.30
2024-02-13T23:32:49.392Z,8.27
2024-02-13T23:35:18.431Z,8.25
2024-02-13T23:37:47.205Z,8.22
2024-02-13T23:40:19.429Z,8.20
2024-02-13T23:42:50.420Z,8.16
2024-02-13T23:45:17.902Z,8.13
2024-02-13T23:47:45.041Z,8.10
2024-02-13T23:50:14.715Z,8.09
2024-02-13T23:52:42.406Z,8.04
2024-02-13T23:55:11.929Z,8.01
2024-02-13T23:57:41.739Z,7.99
